createdAt,value
2022-10-11T01:53:38.142Z,8.92
2022-10-11T01:56:18.928Z,8.94
2022-10-11T01:58:51.601Z,9.04
2022-10-11T02:01:42.882Z,8.59
2022-10-11T02:04:25.768Z,8.82
2022-10-11T02:07:10.508Z,8.79
2022-10-11T02:10:07.667Z,8.89
2022-10-11T02:12:40.117Z,8.56
2022-10-11T02:15:09.678Z,8.57
2022-10-11T02:17:48.529Z,8.64
2022-10-11T02:20:20.104Z,8.78
2022-10-11T02:22:50.093Z,8.53
2022-10-11T02:25:40.154Z,8.48
2022-10-11T02:28:11.684Z,8.20
2022-10-11T02:30:42.490Z,8.34
2022-10-11T02:33:13.485Z,7.89
2022-10-11T02:35:45.669Z,8.60
2022-10-11T02:38:22.128Z,8.40
2022-10-11T02:40:56.747Z,8.45
2022-10-11T02:43:48.527Z,8.29
2022-10-11T02:46:17.763Z,8.26
2022-10-11T02:48:44.314Z,7.76
2022-10-11T02:51:14.690Z,8.19
2022-10-11T02:53:41.195Z,7.96
2022-10-11T02:56:08.190Z,8.07
2022-10-11T02:58:35.427Z,7.82
2022-10-11T03:01:02.049Z,7.64
2022-10-11T03:03:28.735Z,7.86
2022-10-11T03:05:59.639Z,8.37
2022-10-11T03:08:26.536Z,7.98
2022-10-11T03:10:53.078Z,8.09
2022-10-11T03:13:20.022Z,8.00
2022-10-11T03:16:02.325Z,8.07
2022-10-11T03:18:37.159Z,8.28
2022-10-11T03:21:04.005Z,7.76
2022-10-11T03:23:39.954Z,7.75
2022-10-11T03:26:07.058Z,7.46
2022-10-11T03:28:34.089Z,7.74
2022-10-11T03:31:00.681Z,7.95
2022-10-11T03:33:27.228Z,7.36
2022-10-11T03:35:56.975Z,7.36
2022-10-11T03:38:23.723Z,7.77
2022-10-11T03:40:50.325Z,7.62
2022-10-11T03:43:17.380Z,7.40
2022-10-11T03:45:43.995Z,7.60
2022-10-11T03:48:15.114Z,7.72
2022-10-11T03:50:41.769Z,7.64
2022-10-11T03:53:08.728Z,7.95
2022-10-11T03:55:35.552Z,7.66
2022-10-11T03:58:02.087Z,8.14
2022-10-11T04:00:28.761Z,7.83
2022-10-11T04:02:55.186Z,8.06
2022-10-11T04:05:21.708Z,7.92
2022-10-11T04:07:48.541Z,7.77
2022-10-11T04:10:14.974Z,7.99
2022-10-11T04:12:41.526Z,7.88
2022-10-11T04:15:08.500Z,7.98
2022-10-11T04:17:34.984Z,8.37
2022-10-11T04:20:01.542Z,7.99
2022-10-11T04:22:27.983Z,8.04
2022-10-11T04:24:54.562Z,8.39
2022-10-11T04:27:21.472Z,8.48
2022-10-11T04:29:47.906Z,8.20
2022-10-11T04:32:14.439Z,8.28
2022-10-11T04:34:41.068Z,7.90
2022-10-11T04:37:07.563Z,8.31
2022-10-11T04:39:34.233Z,8.35
2022-10-11T04:42:00.666Z,8.24
2022-10-11T04:44:27.181Z,7.98
2022-10-11T04:46:53.788Z,7.82
2022-10-11T04:49:22.122Z,7.89
2022-10-11T04:51:48.812Z,7.98
2022-10-11T04:54:18.078Z,8.17
2022-10-11T05:46:09.427Z,7.76
2022-10-11T05:48:36.390Z,7.71
2022-10-11T05:51:24.897Z,8.14
2022-10-11T14:04:01.800Z,14.93
2022-10-11T14:09:54.829Z,14.39
2022-10-11T14:12:39.702Z,15.11
2022-10-11T14:15:29.761Z,15.17
2022-10-11T14:18:34.280Z,15.17
2022-10-11T14:21:24.922Z,14.92
2022-10-11T14:24:19.823Z,15.20
2022-10-11T14:26:56.459Z,14.87
2022-10-11T14:36:22.785Z,15.15
2022-10-11T14:39:21.363Z,14.82
2022-10-11T14:41:48.693Z,14.72
2022-10-11T14:44:20.139Z,14.69
2022-10-11T14:46:48.247Z,15.25
2022-10-11T14:49:19.126Z,14.44
2022-10-11T14:51:48.313Z,14.84
2022-10-11T14:54:16.443Z,14.90
2022-10-11T14:56:42.973Z,14.90
2022-10-11T14:59:14.620Z,14.32
2022-10-11T15:01:41.293Z,14.33
2022-10-11T15:04:10.399Z,14.75
2022-10-11T15:06:43.961Z,14.60
2022-10-11T15:09:12.711Z,13.99
2022-10-11T15:11:39.876Z,14.03
2022-10-11T15:14:09.930Z,14.16
2022-10-11T15:17:52.457Z,14.60
2022-10-11T15:20:27.088Z,14.20
2022-10-11T15:23:02.601Z,13.93
2022-10-11T15:25:35.031Z,14.16
2022-10-11T15:29:17.005Z,13.64
2022-10-11T15:31:37.339Z,13.15
2022-10-11T15:35:15.378Z,13.12
2022-10-11T15:38:26.578Z,13.39
2022-10-11T15:48:43.863Z,12.51
2022-10-11T16:11:18.195Z,11.38
2022-10-11T16:25:36.739Z,10.97
2022-10-11T16:28:00.745Z,10.95
2022-10-11T16:33:32.363Z,10.75
2022-10-11T16:36:21.257Z,10.92
2022-10-11T16:38:52.296Z,10.73
2022-10-11T16:41:22.086Z,10.62
2022-10-11T16:43:52.569Z,10.77
2022-10-11T16:46:20.093Z,9.88
2022-10-11T16:48:47.254Z,9.96
2022-10-11T16:51:14.124Z,10.38
2022-10-11T16:53:40.897Z,10.56
2022-10-11T16:56:08.538Z,10.43
2022-10-11T16:58:36.538Z,9.89
2022-10-11T17:01:11.236Z,10.11
2022-10-11T17:03:38.306Z,9.81
2022-10-11T17:06:06.225Z,9.56
2022-10-11T17:08:33.126Z,9.91
2022-10-11T17:11:09.487Z,9.88
2022-10-11T17:13:36.283Z,9.87
2022-10-11T17:16:07.339Z,9.66
2022-10-11T17:18:34.399Z,9.12
2022-10-11T17:21:05.152Z,9.72
2022-10-11T17:23:31.902Z,8.92
2022-10-11T17:26:28.859Z,9.48
2022-10-11T17:29:00.996Z,8.98
2022-10-11T17:31:29.022Z,9.33
2022-10-11T17:34:01.852Z,8.58
2022-10-11T17:36:44.183Z,8.93
2022-10-11T17:39:41.073Z,8.81
2022-10-11T17:55:16.563Z,8.65
2022-10-11T17:58:12.304Z,8.24
2022-10-11T18:01:20.960Z,7.72
2022-10-11T18:04:33.664Z,7.97
2022-10-11T18:14:32.053Z,7.79
